Time;durP1;ratioP1;P1;durP2;ratioP2;P2;SDS_P1;SDS_P2;PMS_P1;PMS_P2;Temp;Humidity;BMP_temperature;BMP_pressure;BME280_temperature;BME280_humidity;BME280_pressure;Samples;Min_cycle;Max_cycle;Signal;HPM_P1;HPM_P2
2022/04/05 00:00:56;;;;;;;9.33;7.33;;;;;;;5.50;100.00;98123.41;4950039;28;20275;-77
2022/04/05 00:03:26;;;;;;;9.87;8.83;;;;;;;5.44;100.00;98101.00;4945453;28;20211;-77
2022/04/05 00:05:55;;;;;;;9.17;8.23;;;;;;;5.45;100.00;98114.03;4947905;28;20231;-77
2022/04/05 00:08:26;;;;;;;10.17;9.27;;;;;;;5.38;100.00;98107.47;4952667;28;20284;-78
2022/04/05 00:10:55;;;;;;;9.40;7.83;;;;;;;5.45;100.00;98097.44;4948697;28;20226;-78
2022/04/05 00:13:23;;;;;;;8.67;7.77;;;;;;;5.45;100.00;98105.31;4953711;28;20204;-78
2022/04/05 00:15:53;;;;;;;8.77;7.77;;;;;;;5.44;100.00;98095.75;4949347;28;20232;-78
2022/04/05 00:18:21;;;;;;;9.93;9.03;;;;;;;5.43;100.00;98113.28;4954477;28;20188;-78
2022/04/05 00:20:51;;;;;;;9.33;8.43;;;;;;;5.51;100.00;98099.69;4948114;28;20251;-78
2022/04/05 00:23:19;;;;;;;8.63;7.80;;;;;;;5.47;100.00;98096.41;4952134;28;20211;-78
2022/04/05 00:25:48;;;;;;;9.10;8.30;;;;;;;5.50;100.00;98103.28;4948722;28;20287;-78
2022/04/05 00:28:16;;;;;;;8.23;7.43;;;;;;;5.52;100.00;98090.03;4947341;28;20216;-78
2022/04/05 00:30:46;;;;;;;8.57;7.70;;;;;;;5.60;100.00;98103.56;4950042;28;20205;-78
2022/04/05 00:33:15;;;;;;;8.80;8.00;;;;;;;5.54;100.00;98085.53;4952725;28;20193;-77
2022/04/05 00:35:43;;;;;;;8.47;7.27;;;;;;;5.55;100.00;98077.56;4908684;28;20227;-77
2022/04/05 00:38:14;;;;;;;8.43;7.63;;;;;;;5.54;100.00;98075.88;4971806;28;20203;-77
2022/04/05 00:40:42;;;;;;;7.60;6.90;;;;;;;5.58;100.00;98084.41;4974747;28;20200;-77
2022/04/05 00:43:11;;;;;;;8.33;7.50;;;;;;;5.65;100.00;98076.06;4969580;28;20200;-77
2022/04/05 00:45:40;;;;;;;7.70;7.00;;;;;;;5.58;100.00;98081.78;4971528;28;20228;-77
2022/04/05 00:48:09;;;;;;;8.60;6.83;;;;;;;5.63;100.00;98074.47;4975770;28;20199;-77
2022/04/05 00:50:39;;;;;;;8.03;7.23;;;;;;;5.64;100.00;98073.53;4970683;28;20657;-78
2022/04/05 00:53:08;;;;;;;8.10;7.40;;;;;;;5.61;100.00;98081.59;4974866;28;20200;-77
2022/04/05 00:55:40;;;;;;;7.87;6.80;;;;;;;5.67;100.00;98078.59;4970836;28;20275;-77
2022/04/05 00:58:14;;;;;;;8.13;6.90;;;;;;;5.71;100.00;98072.22;4975561;28;20215;-77
2022/04/05 01:00:45;;;;;;;7.93;7.23;;;;;;;5.63;100.00;98077.09;4975655;28;20192;-77
2022/04/05 01:03:14;;;;;;;7.50;6.80;;;;;;;5.65;100.00;98083.94;4970728;28;20282;-78
2022/04/05 01:05:43;;;;;;;6.97;6.27;;;;;;;5.67;100.00;98079.44;4969216;28;20375;-78
2022/04/05 01:08:15;;;;;;;8.20;7.30;;;;;;;5.73;100.00;98073.81;4970008;28;20198;-78
2022/04/05 01:10:47;;;;;;;8.63;6.80;;;;;;;5.74;100.00;98067.59;4969549;28;20202;-77
2022/04/05 01:13:15;;;;;;;7.57;6.87;;;;;;;5.69;100.00;98058.31;4975987;28;20274;-78
2022/04/05 01:15:44;;;;;;;8.50;7.13;;;;;;;5.68;100.00;98069.75;4968771;28;20200;-77
2022/04/05 01:18:14;;;;;;;9.33;8.07;;;;;;;5.69;100.00;98066.19;4971677;28;20596;-77
2022/04/05 01:20:43;;;;;;;8.30;7.50;;;;;;;5.73;100.00;98073.81;4968539;28;20207;-77
2022/04/05 01:23:12;;;;;;;8.00;7.20;;;;;;;5.74;100.00;98066.75;4968603;28;20188;-78
2022/04/05 01:25:44;;;;;;;8.90;8.00;;;;;;;5.69;100.00;98072.31;4968365;28;20231;-77
2022/04/05 01:28:13;;;;;;;9.53;8.63;;;;;;;5.69;100.00;98076.69;4970140;28;20199;-77
2022/04/05 01:30:41;;;;;;;9.00;8.10;;;;;;;5.71;100.00;98065.19;4969015;28;20195;-78
2022/04/05 01:33:10;;;;;;;8.90;8.00;;;;;;;5.69;100.00;98063.56;4950413;28;20207;-77
2022/04/05 01:35:39;;;;;;;8.07;7.37;;;;;;;5.73;100.00;98065.09;4961164;28;20203;-76
2022/04/05 01:38:09;;;;;;;10.97;7.37;;;;;;;5.80;100.00;98061.13;4970713;28;20188;-76
2022/04/05 01:40:38;;;;;;;9.30;8.40;;;;;;;5.79;100.00;98072.59;4971421;28;20206;-77
2022/04/05 01:43:08;;;;;;;8.80;7.90;;;;;;;5.77;100.00;98058.69;4969787;28;20291;-77
2022/04/05 01:45:37;;;;;;;8.93;8.03;;;;;;;5.75;100.00;98050.91;4969465;28;20216;-76
2022/04/05 01:48:06;;;;;;;8.77;7.87;;;;;;;5.83;100.00;98073.25;4953234;28;20206;-77
2022/04/05 01:50:34;;;;;;;11.53;8.03;;;;;;;5.78;100.00;98068.25;4968733;28;20195;-79
2022/04/05 01:53:04;;;;;;;9.03;8.10;;;;;;;5.75;100.00;98063.19;4970638;28;20227;-76
2022/04/05 01:55:34;;;;;;;9.17;8.27;;;;;;;5.80;100.00;98057.69;4972173;28;20255;-77
2022/04/05 01:58:07;;;;;;;8.67;7.80;;;;;;;5.81;100.00;98060.19;4971294;28;20652;-76
2022/04/05 02:00:37;;;;;;;9.13;8.23;;;;;;;5.85;100.00;98058.22;4971982;28;20204;-77
2022/04/05 02:03:08;;;;;;;9.10;8.20;;;;;;;5.75;100.00;98043.03;4973720;28;20191;-77
2022/04/05 02:05:38;;;;;;;9.83;8.93;;;;;;;5.78;100.00;98051.66;4953042;28;20331;-77
2022/04/05 02:08:07;;;;;;;9.43;8.53;;;;;;;5.81;100.00;98057.56;4952971;28;20641;-77
2022/04/05 02:10:37;;;;;;;9.00;8.10;;;;;;;5.84;100.00;98056.53;4954634;28;20196;-77
2022/04/05 02:13:07;;;;;;;8.93;8.03;;;;;;;5.84;100.00;98046.03;4944686;28;20304;-76
2022/04/05 02:15:38;;;;;;;9.77;8.83;;;;;;;5.84;100.00;98046.88;4949833;28;20204;-77
2022/04/05 02:18:06;;;;;;;10.70;8.37;;;;;;;5.91;100.00;98056.09;4951054;28;20201;-78
2022/04/05 02:20:35;;;;;;;9.20;8.30;;;;;;;5.88;100.00;98050.97;4953208;28;20193;-78
2022/04/05 02:23:03;;;;;;;9.40;8.53;;;;;;;5.91;100.00;98047.38;4957034;28;20203;-77
2022/04/05 02:25:32;;;;;;;10.43;9.33;;;;;;;5.86;100.00;98049.38;4966020;28;20270;-77
2022/04/05 02:28:03;;;;;;;9.17;8.27;;;;;;;5.89;100.00;98039.56;4948152;28;20188;-77
2022/04/05 02:30:31;;;;;;;9.07;8.10;;;;;;;5.93;100.00;98059.47;4949191;28;20205;-79
2022/04/05 02:33:04;;;;;;;9.70;8.80;;;;;;;5.92;100.00;98049.88;4944871;28;20207;-77
2022/04/05 02:35:32;;;;;;;9.70;8.80;;;;;;;5.92;100.00;98042.00;4951263;28;20200;-77
2022/04/05 02:38:01;;;;;;;8.90;8.00;;;;;;;5.96;100.00;98047.91;4957173;28;20204;-77
2022/04/05 02:40:29;;;;;;;9.07;8.27;;;;;;;5.91;100.00;98055.25;4948267;28;20204;-77
2022/04/05 02:42:58;;;;;;;10.67;9.00;;;;;;;5.97;100.00;98041.69;4948054;28;20192;-76
2022/04/05 02:45:29;;;;;;;9.53;8.63;;;;;;;5.90;100.00;98036.00;4952512;28;20216;-77
2022/04/05 02:47:57;;;;;;;9.40;8.27;;;;;;;5.98;100.00;98048.63;4974206;28;20244;-77
2022/04/05 02:50:28;;;;;;;9.33;8.20;;;;;;;5.95;100.00;98038.34;4974523;28;20192;-77
2022/04/05 02:52:56;;;;;;;9.30;8.37;;;;;;;5.97;100.00;98055.69;4956995;28;20210;-77
2022/04/05 02:55:25;;;;;;;10.13;9.23;;;;;;;5.91;100.00;98042.94;4969280;28;20314;-77
2022/04/05 02:57:55;;;;;;;11.00;8.83;;;;;;;5.92;100.00;98051.69;4976070;28;20206;-77
2022/04/05 03:00:23;;;;;;;12.50;9.00;;;;;;;5.98;100.00;98060.03;4975242;28;20208;-77
2022/04/05 03:02:52;;;;;;;11.07;8.87;;;;;;;5.96;100.00;98048.75;4974265;28;20282;-77
2022/04/05 03:05:22;;;;;;;10.37;9.03;;;;;;;6.02;100.00;98050.16;4975281;28;20203;-77
2022/04/05 03:07:52;;;;;;;9.70;8.70;;;;;;;6.01;100.00;98045.84;4975584;28;20191;-78
2022/04/05 03:10:22;;;;;;;9.80;8.43;;;;;;;6.03;100.00;98047.41;4976508;28;20207;-77
2022/04/05 03:12:50;;;;;;;9.07;8.17;;;;;;;6.08;100.00;98038.38;4975151;28;20199;-77
2022/04/05 03:15:19;;;;;;;10.20;9.30;;;;;;;6.01;100.00;98048.47;4977043;28;20218;-77
2022/04/05 03:17:50;;;;;;;9.77;8.87;;;;;;;6.05;100.00;98036.81;4976206;28;20206;-77
2022/04/05 03:20:18;;;;;;;9.80;8.80;;;;;;;6.10;100.00;98042.63;4982393;28;20200;-77
2022/04/05 03:22:49;;;;;;;9.23;8.33;;;;;;;6.11;100.00;98036.44;4984624;28;20607;-77
2022/04/05 03:25:19;;;;;;;9.20;8.37;;;;;;;6.06;100.00;98035.84;4979385;28;20219;-77
2022/04/05 03:27:47;;;;;;;8.60;7.80;;;;;;;6.14;100.00;98036.22;4977653;28;20463;-77
2022/04/05 03:30:17;;;;;;;10.50;8.90;;;;;;;6.11;100.00;98035.59;4977245;28;20192;-77
2022/04/05 03:32:46;;;;;;;8.70;7.80;;;;;;;6.12;100.00;98030.22;4978315;28;20639;-77
2022/04/05 03:35:14;;;;;;;10.20;9.20;;;;;;;6.11;100.00;98046.94;4977180;28;20287;-77
2022/04/05 03:37:43;;;;;;;9.30;8.43;;;;;;;6.14;100.00;98030.13;4936405;29;20205;-77
2022/04/05 03:40:13;;;;;;;9.73;7.57;;;;;;;6.20;100.00;98024.47;4933291;29;20286;-77
2022/04/05 03:42:43;;;;;;;9.07;8.17;;;;;;;6.18;100.00;98047.41;4934448;29;20233;-77
2022/04/05 03:45:13;;;;;;;9.20;8.30;;;;;;;6.19;100.00;98042.03;4934318;29;20213;-77
2022/04/05 03:47:42;;;;;;;9.30;8.40;;;;;;;6.14;100.00;98023.06;4914812;29;20222;-77
2022/04/05 03:50:11;;;;;;;8.13;7.33;;;;;;;6.21;100.00;98037.53;4917712;29;20204;-77
2022/04/05 03:52:39;;;;;;;7.70;6.97;;;;;;;6.21;100.00;98041.94;4915048;29;20208;-77
2022/04/05 03:55:12;;;;;;;8.60;7.80;;;;;;;6.18;100.00;98031.63;4922759;29;20192;-77
2022/04/05 03:57:41;;;;;;;9.13;7.20;;;;;;;6.21;100.00;98029.63;4953302;28;20200;-77
2022/04/05 04:00:17;;;;;;;8.40;7.50;;;;;;;6.19;100.00;98036.78;4955240;28;20719;-77
2022/04/05 04:02:45;;;;;;;8.87;8.00;;;;;;;6.21;100.00;98026.16;4952976;28;20212;-77
2022/04/05 04:05:17;;;;;;;8.23;7.43;;;;;;;6.17;100.00;98043.91;4957740;28;20693;-78
2022/04/05 04:07:46;;;;;;;9.03;8.20;;;;;;;6.20;100.00;98035.00;4976516;28;20219;-77
2022/04/05 04:10:15;;;;;;;8.30;7.47;;;;;;;6.22;100.00;98031.31;4975141;28;20196;-78
2022/04/05 04:12:46;;;;;;;7.80;7.07;;;;;;;6.25;100.00;98046.88;4992280;28;20207;-77
2022/04/05 04:15:16;;;;;;;7.63;6.83;;;;;;;6.26;100.00;98045.94;4987140;28;20214;-78
2022/04/05 04:17:45;;;;;;;10.50;7.70;;;;;;;6.27;100.00;98034.50;4988115;28;20307;-77
2022/04/05 04:20:13;;;;;;;9.10;7.47;;;;;;;6.30;100.00;98044.81;4988072;28;20191;-77
2022/04/05 04:22:44;;;;;;;8.60;7.80;;;;;;;6.23;100.00;98043.50;4993625;28;20195;-78
2022/04/05 04:25:13;;;;;;;7.97;7.17;;;;;;;6.24;100.00;98033.84;4974138;28;20246;-78
2022/04/05 04:27:41;;;;;;;7.80;7.00;;;;;;;6.23;100.00;98035.63;4970285;28;20328;-77
2022/04/05 04:30:10;;;;;;;9.13;8.40;;;;;;;6.19;100.00;98035.94;4972111;28;20218;-77
2022/04/05 04:32:43;;;;;;;7.83;7.03;;;;;;;6.22;100.00;98036.56;4967889;28;20299;-78
2022/04/05 04:35:12;;;;;;;9.50;8.60;;;;;;;6.15;100.00;98042.31;4966533;28;20191;-78
2022/04/05 04:37:41;;;;;;;11.80;7.40;;;;;;;6.21;100.00;98045.41;4973784;28;20282;-77
2022/04/05 04:40:10;;;;;;;8.90;7.67;;;;;;;6.26;100.00;98043.31;4964541;28;20204;-77
2022/04/05 04:42:39;;;;;;;8.57;7.20;;;;;;;6.24;100.00;98045.19;4969527;28;20202;-78
2022/04/05 04:45:08;;;;;;;9.67;8.67;;;;;;;6.22;100.00;98060.25;4976457;28;20192;-77
2022/04/05 04:47:36;;;;;;;9.40;8.40;;;;;;;6.23;100.00;98055.81;4958999;28;20311;-77
2022/04/05 04:50:10;;;;;;;8.97;8.07;;;;;;;6.30;100.00;98051.88;4976698;28;20215;-77
2022/04/05 04:52:39;;;;;;;8.83;7.63;;;;;;;6.24;100.00;98058.34;4975500;28;20270;-77
2022/04/05 04:55:09;;;;;;;8.30;7.50;;;;;;;6.32;100.00;98053.44;4974200;28;20207;-78
2022/04/05 04:57:37;;;;;;;8.23;7.30;;;;;;;6.33;100.00;98085.84;4914735;29;20261;-78
2022/04/05 05:00:07;;;;;;;8.53;7.70;;;;;;;6.24;100.00;98068.88;4910010;29;20696;-78
2022/04/05 05:02:45;;;;;;;8.07;7.27;;;;;;;6.31;100.00;98058.81;4915922;29;20208;-77
2022/04/05 05:05:17;;;;;;;8.43;7.63;;;;;;;6.27;100.00;98055.53;4918263;29;20201;-77
2022/04/05 05:07:47;;;;;;;8.83;7.93;;;;;;;6.23;100.00;98064.53;4914477;29;20238;-77
2022/04/05 05:10:16;;;;;;;7.70;7.00;;;;;;;6.30;100.00;98059.75;4915047;29;20194;-77
2022/04/05 05:12:44;;;;;;;8.40;7.33;;;;;;;6.41;100.00;98066.94;4934986;29;20197;-77
2022/04/05 05:15:16;;;;;;;9.93;7.83;;;;;;;6.40;100.00;98062.63;4935511;29;20209;-78
2022/04/05 05:17:45;;;;;;;8.47;7.77;;;;;;;6.30;100.00;98065.84;4932271;29;20284;-78
2022/04/05 05:20:17;;;;;;;8.77;7.87;;;;;;;6.38;100.00;98070.63;4935737;29;20189;-78
2022/04/05 05:22:47;;;;;;;10.53;7.57;;;;;;;6.39;100.00;98080.19;4935678;29;20193;-78
2022/04/05 05:25:16;;;;;;;8.00;7.30;;;;;;;6.35;100.00;98076.06;4930184;29;20233;-78
2022/04/05 05:27:45;;;;;;;9.20;7.50;;;;;;;6.39;100.00;98080.19;4934319;28;20224;-77
2022/04/05 05:30:15;;;;;;;7.87;7.07;;;;;;;6.47;100.00;98084.97;4988902;28;20200;-78
2022/04/05 05:32:44;;;;;;;7.77;7.00;;;;;;;6.40;100.00;98078.41;4977477;28;20202;-78
2022/04/05 05:35:16;;;;;;;7.90;7.10;;;;;;;6.40;100.00;98070.53;4975266;28;20558;-78
2022/04/05 05:37:45;;;;;;;7.40;6.53;;;;;;;6.49;100.00;98085.72;4975132;28;20203;-78
2022/04/05 05:40:15;;;;;;;7.53;6.77;;;;;;;6.45;100.00;98102.59;4973607;28;20200;-78
2022/04/05 05:42:51;;;;;;;7.30;6.60;;;;;;;6.47;100.00;98091.06;4976406;28;20264;-78
2022/04/05 05:45:21;;;;;;;8.57;7.70;;;;;;;6.48;100.00;98089.28;4975064;28;20202;-78
2022/04/05 05:47:50;;;;;;;9.57;7.57;;;;;;;6.45;100.00;98108.72;4969014;28;20233;-78
2022/04/05 05:50:20;;;;;;;8.33;7.50;;;;;;;6.48;100.00;98111.16;4975418;28;20277;-77
2022/04/05 05:52:49;;;;;;;8.67;6.90;;;;;;;6.52;100.00;98109.16;4974309;28;20200;-78
2022/04/05 05:55:20;;;;;;;7.30;6.60;;;;;;;6.54;100.00;98102.03;4972522;28;20200;-78
2022/04/05 05:57:49;;;;;;;9.23;7.10;;;;;;;6.56;100.00;98114.16;4968384;28;20227;-78
2022/04/05 06:00:21;;;;;;;8.90;7.27;;;;;;;6.52;100.00;98117.91;4974443;28;20192;-78
2022/04/05 06:02:54;;;;;;;9.23;7.67;;;;;;;6.53;100.00;98119.59;4973621;28;20303;-78
2022/04/05 06:05:25;;;;;;;9.03;8.23;;;;;;;6.49;100.00;98131.25;4974785;28;20287;-78
2022/04/05 06:07:53;;;;;;;8.13;7.33;;;;;;;6.59;100.00;98123.63;4968251;28;20233;-78
2022/04/05 06:10:22;;;;;;;8.37;7.30;;;;;;;6.68;100.00;98128.28;4973933;28;20199;-78
2022/04/05 06:12:52;;;;;;;7.43;6.73;;;;;;;6.58;100.00;98127.19;4973351;28;20202;-77
2022/04/05 06:15:23;;;;;;;8.30;7.27;;;;;;;6.59;100.00;98131.53;4974151;28;20278;-78
2022/04/05 06:17:53;;;;;;;7.27;6.47;;;;;;;6.70;100.00;98122.94;4972358;28;20196;-78
2022/04/05 06:20:25;;;;;;;8.40;7.50;;;;;;;6.68;100.00;98130.94;4974855;28;20328;-78
2022/04/05 06:22:56;;;;;;;7.97;7.17;;;;;;;6.74;100.00;98132.28;4974042;28;20203;-78
2022/04/05 06:25:27;;;;;;;8.33;7.43;;;;;;;6.66;100.00;98137.19;4971903;28;20224;-78
2022/04/05 06:27:55;;;;;;;6.87;6.13;;;;;;;6.71;100.00;98129.88;4975482;28;20224;-78
2022/04/05 06:30:25;;;;;;;7.87;7.10;;;;;;;6.73;100.00;98143.78;4973368;28;20196;-78
2022/04/05 06:33:05;;;;;;;8.27;6.60;;;;;;;6.79;100.00;98141.59;4973873;28;20219;-78
2022/04/05 06:35:37;;;;;;;7.67;6.70;;;;;;;6.85;100.00;98137.69;4973363;28;20797;-78
2022/04/05 06:38:06;;;;;;;8.40;7.43;;;;;;;6.80;100.00;98137.16;4954111;28;20210;-78
2022/04/05 06:40:35;;;;;;;8.47;7.67;;;;;;;6.78;100.00;98134.66;4970476;28;20206;-77
2022/04/05 06:43:03;;;;;;;8.80;7.90;;;;;;;6.72;100.00;98142.09;4969799;28;20210;-77
2022/04/05 06:45:32;;;;;;;7.97;7.17;;;;;;;6.78;100.00;98133.81;4956528;28;20225;-78
2022/04/05 06:48:02;;;;;;;8.30;7.40;;;;;;;6.79;100.00;98138.13;4960018;28;20801;-77
2022/04/05 06:50:31;;;;;;;8.03;7.23;;;;;;;6.82;100.00;98136.13;4978208;28;20251;-77
2022/04/05 06:53:01;;;;;;;8.70;7.80;;;;;;;6.86;100.00;98137.63;4978116;28;20608;-78
2022/04/05 06:55:32;;;;;;;7.30;6.60;;;;;;;6.93;100.00;98127.53;4976715;28;20215;-78
2022/04/05 06:58:02;;;;;;;7.40;6.63;;;;;;;6.96;100.00;98132.59;4971200;28;20207;-78
2022/04/05 07:00:32;;;;;;;7.93;7.23;;;;;;;6.86;100.00;98132.38;4976537;28;20216;-78
2022/04/05 07:03:01;;;;;;;8.27;7.57;;;;;;;6.92;100.00;98132.88;4974468;28;20200;-78
2022/04/05 07:05:29;;;;;;;8.23;7.30;;;;;;;7.00;100.00;98136.72;4971859;28;20206;-78
2022/04/05 07:07:58;;;;;;;8.23;7.43;;;;;;;6.97;100.00;98144.81;4977181;28;20223;-78
2022/04/05 07:10:28;;;;;;;6.77;6.07;;;;;;;7.07;100.00;98142.41;4977856;28;20211;-78
2022/04/05 07:12:57;;;;;;;7.90;7.20;;;;;;;7.06;100.00;98138.09;4937005;29;20208;-78
2022/04/05 07:15:26;;;;;;;7.33;6.40;;;;;;;7.13;100.00;98148.09;4932486;29;20364;-77
2022/04/05 07:17:54;;;;;;;7.10;6.40;;;;;;;7.13;100.00;98139.38;4935286;29;20201;-78
2022/04/05 07:20:30;;;;;;;7.33;5.97;;;;;;;7.20;100.00;98143.28;4935742;29;20237;-78
2022/04/05 07:22:59;;;;;;;6.93;6.23;;;;;;;7.23;100.00;98150.13;4937101;29;20288;-78
2022/04/05 07:25:29;;;;;;;7.27;6.57;;;;;;;7.33;100.00;98138.88;4935578;29;20235;-78
2022/04/05 07:28:02;;;;;;;8.53;7.83;;;;;;;7.21;100.00;98138.88;4930623;29;20229;-78
2022/04/05 07:30:30;;;;;;;6.80;6.10;;;;;;;7.33;100.00;98146.78;4946212;28;20275;-78
2022/04/05 07:32:58;;;;;;;10.63;8.60;;;;;;;7.38;100.00;98160.50;4977704;28;20200;-78
2022/04/05 07:35:26;;;;;;;6.97;6.07;;;;;;;7.39;100.00;98130.56;4973428;28;20208;-78
2022/04/05 07:37:56;;;;;;;6.80;6.10;;;;;;;7.37;100.00;98148.28;4972603;28;20677;-78
2022/04/05 07:40:27;;;;;;;7.43;6.73;;;;;;;7.40;100.00;98145.44;4908880;29;20213;-78
2022/04/05 07:42:57;;;;;;;7.40;6.70;;;;;;;7.33;100.00;98145.94;4917863;29;20352;-77
2022/04/05 07:45:26;;;;;;;6.77;6.17;;;;;;;7.32;100.00;98146.88;4916843;29;20205;-80
2022/04/05 07:47:55;;;;;;;6.00;5.40;;;;;;;7.41;100.00;98141.00;4917476;29;20265;-78
2022/04/05 07:50:24;;;;;;;7.83;5.77;;;;;;;7.55;100.00;98137.44;4916877;29;20221;-78
2022/04/05 07:52:54;;;;;;;7.33;6.60;;;;;;;7.63;100.00;98132.50;4913715;29;20221;-78
2022/04/05 07:55:22;;;;;;;7.37;6.67;;;;;;;7.62;100.00;98131.63;4918821;29;20625;-78
2022/04/05 07:57:51;;;;;;;6.60;6.00;;;;;;;7.54;100.00;98128.69;4916949;29;20225;-78
2022/04/05 08:00:24;;;;;;;6.57;5.97;;;;;;;7.74;100.00;98125.53;4919656;28;20209;-78
2022/04/05 08:02:55;;;;;;;7.43;6.83;;;;;;;7.64;100.00;98121.00;4914838;29;20666;-78
2022/04/05 08:05:27;;;;;;;6.40;5.80;;;;;;;7.62;100.00;98125.50;4962220;28;20283;-78
2022/04/05 08:07:56;;;;;;;5.93;5.33;;;;;;;7.84;100.00;98138.06;4976865;28;20199;-79
2022/04/05 08:10:28;;;;;;;6.20;5.60;;;;;;;7.78;100.00;98143.75;4972048;28;20206;-78
2022/04/05 08:13:00;;;;;;;6.00;5.40;;;;;;;7.77;100.00;98134.16;4971228;28;20240;-78
2022/04/05 08:15:30;;;;;;;8.03;7.23;;;;;;;7.80;100.00;98131.31;4973967;28;20203;-78
2022/04/05 08:17:58;;;;;;;6.37;5.60;;;;;;;7.86;100.00;98133.53;4975389;28;20203;-78
2022/04/05 08:20:29;;;;;;;5.93;5.30;;;;;;;7.84;100.00;98140.72;4976281;28;20204;-78
2022/04/05 08:22:57;;;;;;;7.87;6.50;;;;;;;7.88;100.00;98137.75;4972006;28;20195;-78
2022/04/05 08:25:28;;;;;;;9.30;8.33;;;;;;;7.84;100.00;98143.34;4973936;28;20228;-77
2022/04/05 08:27:57;;;;;;;5.57;4.97;;;;;;;8.03;100.00;98149.03;4975324;28;20383;-78
2022/04/05 08:30:26;;;;;;;5.20;4.70;;;;;;;8.09;100.00;98135.41;4859835;29;20235;-78
2022/04/05 08:33:00;;;;;;;5.47;4.63;;;;;;;8.15;100.00;98149.97;4860632;29;20199;-78
2022/04/05 08:35:28;;;;;;;4.97;4.50;;;;;;;8.19;100.00;98139.06;4858068;29;20223;-77
2022/04/05 08:37:57;;;;;;;5.40;4.90;;;;;;;8.21;100.00;98134.56;4873905;29;20286;-78
2022/04/05 08:40:30;;;;;;;4.90;4.50;;;;;;;8.22;100.00;98153.84;4875354;29;20278;-79
2022/04/05 08:42:58;;;;;;;4.90;4.50;;;;;;;8.12;100.00;98155.47;4871949;29;20214;-78
2022/04/05 08:45:28;;;;;;;5.03;4.53;;;;;;;8.32;100.00;98141.69;4846568;29;20211;-78
2022/04/05 08:47:58;;;;;;;4.80;4.40;;;;;;;8.32;100.00;98150.47;4876122;29;20210;-78
2022/04/05 08:50:30;;;;;;;5.07;4.67;;;;;;;8.14;100.00;98143.84;4878301;29;20310;-78
2022/04/05 08:53:00;;;;;;;4.40;3.70;;;;;;;8.40;100.00;98152.59;4873172;29;20237;-78
2022/04/05 08:55:37;;;;;;;4.10;3.70;;;;;;;8.48;100.00;98146.75;4916340;28;20211;-78
2022/04/05 08:58:06;;;;;;;5.67;3.90;;;;;;;8.43;100.00;98144.44;4973689;28;20223;-78
2022/04/05 09:00:34;;;;;;;3.87;3.57;;;;;;;8.34;100.00;98145.06;4965278;28;20199;-78
2022/04/05 09:03:05;;;;;;;3.33;3.03;;;;;;;8.38;100.00;98149.19;4969428;28;20794;-78
2022/04/05 09:05:37;;;;;;;3.87;3.37;;;;;;;8.55;100.00;98145.34;4969551;28;20200;-78
2022/04/05 09:08:22;;;;;;;6.17;3.40;;;;;;;8.52;100.00;98142.94;4975181;28;20203;-78
2022/04/05 09:10:52;;;;;;;3.30;3.00;;;;;;;8.62;100.00;98140.50;4974009;28;20224;-77
2022/04/05 09:13:25;;;;;;;3.37;3.07;;;;;;;8.73;100.00;98146.66;4973907;28;20647;-78
2022/04/05 09:15:56;;;;;;;3.43;3.13;;;;;;;8.75;100.00;98147.38;4975194;28;20203;-78
2022/04/05 09:18:36;;;;;;;3.73;3.43;;;;;;;8.63;100.00;98137.72;4974087;28;20215;-78
2022/04/05 09:21:08;;;;;;;3.53;3.23;;;;;;;8.79;100.00;98130.38;4973890;28;20207;-78
2022/04/05 09:23:39;;;;;;;4.10;3.70;;;;;;;8.81;100.00;98144.31;4975216;28;20203;-78
2022/04/05 09:26:09;;;;;;;3.17;2.87;;;;;;;8.83;100.00;98134.47;4974546;28;20219;-78
2022/04/05 09:28:40;;;;;;;4.03;3.63;;;;;;;8.80;100.00;98139.16;4972464;28;20207;-78
2022/04/05 09:31:10;;;;;;;3.83;3.47;;;;;;;9.03;100.00;98142.72;4975062;28;20227;-78
2022/04/05 09:33:40;;;;;;;4.00;3.13;;;;;;;9.00;100.00;98119.19;4974023;28;20200;-78
2022/04/05 09:36:13;;;;;;;3.50;3.07;;;;;;;9.28;100.00;98129.38;4972412;28;20203;-78
2022/04/05 09:38:45;;;;;;;4.27;3.73;;;;;;;9.45;100.00;98131.56;4970231;28;20207;-78
2022/04/05 09:41:17;;;;;;;3.77;3.40;;;;;;;9.22;100.00;98123.72;4971963;28;20196;-78
2022/04/05 09:43:55;;;;;;;3.90;3.60;;;;;;;9.17;100.00;98135.47;4975016;28;20211;-78
2022/04/05 09:46:23;;;;;;;3.17;2.87;;;;;;;9.25;100.00;98132.25;4974969;28;20195;-78
2022/04/05 09:49:12;;;;;;;3.50;3.20;;;;;;;9.37;100.00;98138.44;4974289;28;20203;-79
2022/04/05 09:51:44;;;;;;;3.70;3.40;;;;;;;9.19;100.00;98130.06;4989516;28;20202;-78
2022/04/05 09:54:22;;;;;;;3.00;2.70;;;;;;;9.33;100.00;98135.16;4952963;28;20193;-78
2022/04/05 09:56:53;;;;;;;3.67;3.37;;;;;;;9.35;100.00;98145.59;4947428;29;20215;-78
2022/04/05 09:59:22;;;;;;;3.40;2.90;;;;;;;9.55;100.00;98128.22;4950349;28;20283;-78
2022/04/05 10:01:56;;;;;;;2.83;2.63;;;;;;;9.88;100.00;98133.59;4948156;28;20208;-78
2022/04/05 10:04:24;;;;;;;2.93;2.63;;;;;;;9.49;100.00;98131.34;4896324;29;20206;-77
2022/04/05 10:06:56;;;;;;;3.00;2.70;;;;;;;9.71;100.00;98134.03;4893848;29;20198;-78
2022/04/05 10:09:25;;;;;;;3.00;2.70;;;;;;;9.52;100.00;98131.97;4893797;29;20285;-78
2022/04/05 10:11:56;;;;;;;5.17;2.97;;;;;;;9.54;100.00;98134.47;4903078;29;20193;-77
2022/04/05 10:14:25;;;;;;;3.07;2.80;;;;;;;9.57;100.00;98129.81;4931218;29;20198;-78
2022/04/05 10:16:53;;;;;;;2.93;2.63;;;;;;;9.77;100.00;98127.44;4902283;29;20193;-78
2022/04/05 10:19:25;;;;;;;3.00;2.63;;;;;;;9.64;100.00;98146.03;4915638;29;20197;-78
2022/04/05 10:21:56;;;;;;;2.80;2.60;;;;;;;9.59;100.00;98132.34;4941478;28;20196;-78
2022/04/05 10:24:27;;;;;;;2.80;2.60;;;;;;;9.69;100.00;98134.16;4971702;28;20191;-78
2022/04/05 10:26:55;;;;;;;3.33;3.10;;;;;;;9.79;100.00;98118.44;4971647;28;20207;-78
2022/04/05 10:29:27;;;;;;;2.80;2.57;;;;;;;10.05;100.00;98134.91;4973947;28;20204;-78
2022/04/05 10:32:03;;;;;;;3.00;2.70;;;;;;;10.01;100.00;98136.09;4972977;28;20214;-78
2022/04/05 10:34:38;;;;;;;3.00;2.70;;;;;;;10.04;100.00;98109.44;4975027;28;20199;-77
2022/04/05 10:37:16;;;;;;;2.60;2.40;;;;;;;10.28;100.00;98110.16;4973971;28;20199;-77
2022/04/05 10:40:05;;;;;;;2.70;2.50;;;;;;;10.39;100.00;98125.16;4976384;28;20200;-78
2022/04/05 10:42:37;;;;;;;3.60;2.47;;;;;;;10.34;100.00;98121.22;4976431;28;20203;-78
2022/04/05 10:45:14;;;;;;;3.00;2.80;;;;;;;10.40;100.00;98126.84;4957972;28;20203;-78
2022/04/05 10:48:20;;;;;;;2.80;2.60;;;;;;;10.12;100.00;98125.50;4973497;28;20207;-78
2022/04/05 10:51:30;;;;;;;3.17;2.83;;;;;;;10.22;100.00;98128.31;4973610;28;20226;-78
2022/04/05 10:54:22;;;;;;;2.90;2.50;;;;;;;10.13;100.00;98131.66;4974048;28;20212;-78
2022/04/05 10:57:17;;;;;;;3.20;2.90;;;;;;;10.26;100.00;98132.41;4970680;28;20519;-78
2022/04/05 10:59:54;;;;;;;3.60;3.30;;;;;;;9.98;100.00;98139.00;4976001;28;20231;-78
2022/04/05 11:02:44;;;;;;;3.23;3.00;;;;;;;10.18;100.00;98132.13;4973831;28;20200;-78
2022/04/05 11:05:37;;;;;;;3.17;2.63;;;;;;;10.34;100.00;98131.81;4974242;28;20631;-78
2022/04/05 11:08:12;;;;;;;3.33;2.63;;;;;;;10.46;100.00;98126.38;4974702;28;20287;-78
2022/04/05 11:11:00;;;;;;;2.83;2.60;;;;;;;10.40;100.00;98132.16;4969768;28;20322;-78
2022/04/05 11:13:34;;;;;;;3.03;2.70;;;;;;;10.19;100.00;98125.88;4973867;28;20214;-80
2022/04/05 11:16:09;;;;;;;2.50;2.30;;;;;;;10.05;100.00;98119.03;4973844;28;20252;-77
2022/04/05 11:18:39;;;;;;;2.50;2.30;;;;;;;10.09;100.00;98127.56;4975848;28;20293;-78
2022/04/05 11:21:10;;;;;;;2.60;2.40;;;;;;;10.37;100.00;98113.88;4974917;28;20231;-78
2022/04/05 11:23:57;;;;;;;2.53;2.33;;;;;;;10.45;100.00;98119.41;4973082;28;20200;-78
2022/04/05 11:26:33;;;;;;;2.77;2.57;;;;;;;10.41;100.00;98120.59;4974380;28;20299;-78
2022/04/05 11:29:03;;;;;;;2.67;2.40;;;;;;;10.60;100.00;98122.59;4972531;28;20211;-77
2022/04/05 11:31:37;;;;;;;2.80;2.60;;;;;;;10.79;100.00;98111.34;4978633;28;20223;-78
2022/04/05 11:34:35;;;;;;;3.07;2.80;;;;;;;10.68;100.00;98124.63;4979600;28;20196;-80
2022/04/05 11:37:07;;;;;;;2.83;2.63;;;;;;;10.49;100.00;98126.13;4977101;28;20210;-81
2022/04/05 11:39:39;;;;;;;4.90;2.90;;;;;;;10.68;100.00;98117.53;4977023;28;20204;-78
2022/04/05 11:42:10;;;;;;;2.50;2.30;;;;;;;10.58;100.00;98120.09;4975624;28;20196;-78
2022/04/05 11:44:49;;;;;;;2.93;2.73;;;;;;;10.81;100.00;98106.81;4976277;28;20203;-78
2022/04/05 11:47:20;;;;;;;2.20;2.00;;;;;;;10.60;100.00;98117.31;4991334;28;20203;-79
2022/04/05 11:49:51;;;;;;;2.20;2.00;;;;;;;10.66;100.00;98121.28;4992511;28;20203;-79